createdAt,value
2018-05-07T00:02:17.202Z,21.50
2018-05-07T00:04:46.279Z,21.49
2018-05-07T00:07:14.848Z,21.44
2018-05-07T00:09:43.412Z,21.35
2018-05-07T00:12:13.019Z,21.26
2018-05-07T00:14:41.501Z,21.24
2018-05-07T00:17:10.027Z,21.21
2018-05-07T00:19:41.702Z,21.25
2018-05-07T00:22:10.354Z,21.18
2018-05-07T00:24:38.978Z,21.19
2018-05-07T00:27:10.070Z,21.20
2018-05-07T00:29:38.788Z,21.16
2018-05-07T00:32:07.427Z,21.13
2018-05-07T00:34:35.930Z,21.11
2018-05-07T00:37:04.456Z,21.08
2018-05-07T00:39:33.509Z,21.07
2018-05-07T00:42:07.990Z,21.06
2018-05-07T00:44:36.947Z,21.04
2018-05-07T00:47:08.556Z,21.05
2018-05-07T00:49:37.103Z,21.03
2018-05-07T00:52:06.371Z,21.00
2018-05-07T00:54:40.252Z,20.97
2018-05-07T00:57:08.910Z,20.94
2018-05-07T00:59:38.970Z,20.96
2018-05-07T01:02:07.661Z,20.88
2018-05-07T01:04:36.260Z,20.86
2018-05-07T01:07:10.233Z,20.85
2018-05-07T01:09:38.953Z,20.84
2018-05-07T01:12:07.494Z,20.83
2018-05-07T01:14:36.540Z,20.80
2018-05-07T01:17:05.380Z,20.71
2018-05-07T01:19:33.991Z,20.66
2018-05-07T01:22:03.602Z,20.64
2018-05-07T01:24:32.186Z,20.59
2018-05-07T01:27:00.762Z,20.50
2018-05-07T01:29:36.636Z,20.46
2018-05-07T01:32:06.539Z,20.39
2018-05-07T01:34:35.738Z,20.36
2018-05-07T01:37:04.634Z,20.33
2018-05-07T01:39:33.176Z,20.30
2018-05-07T01:42:01.654Z,20.23
2018-05-07T01:44:30.574Z,20.23
2018-05-07T01:46:59.333Z,20.18
2018-05-07T01:49:27.845Z,20.16
2018-05-07T01:51:56.833Z,20.17
2018-05-07T01:54:27.028Z,20.12
2018-05-07T01:56:55.515Z,20.08
2018-05-07T01:59:24.429Z,20.04
2018-05-07T02:01:53.400Z,20.03
2018-05-07T02:04:28.182Z,19.94
2018-05-07T02:06:56.710Z,19.88
2018-05-07T02:09:25.299Z,19.91
2018-05-07T02:11:54.266Z,19.93
2018-05-07T02:14:22.767Z,19.92
2018-05-07T02:16:51.359Z,19.93
2018-05-07T02:19:20.238Z,19.90
2018-05-07T02:21:48.828Z,19.86
2018-05-07T02:24:17.921Z,19.85
2018-05-07T02:26:57.360Z,19.82
2018-05-07T02:29:25.998Z,19.78
2018-05-07T02:31:57.655Z,19.77
2018-05-07T02:34:26.283Z,19.74
2018-05-07T02:36:59.063Z,19.73
2018-05-07T02:39:27.636Z,19.71
2018-05-07T02:41:56.174Z,19.66
2018-05-07T02:44:26.363Z,19.62
2018-05-07T02:46:54.934Z,19.53
2018-05-07T02:49:23.452Z,19.50
2018-05-07T02:51:55.226Z,19.48
2018-05-07T02:54:23.834Z,19.46
2018-05-07T02:56:52.370Z,19.43
2018-05-07T03:01:59.178Z,19.34
2018-05-07T03:04:27.668Z,19.30
2018-05-07T03:06:56.568Z,19.27
2018-05-07T03:09:29.909Z,19.23
2018-05-07T03:11:58.474Z,19.18
2018-05-07T03:14:27.571Z,19.14
2018-05-07T03:16:56.173Z,19.06
2018-05-07T03:19:28.815Z,19.06
2018-05-07T03:21:57.740Z,19.05
2018-05-07T03:24:26.270Z,19.03
2018-05-07T03:26:54.906Z,19.02
2018-05-07T03:29:24.165Z,18.99
2018-05-07T03:31:52.704Z,18.96
2018-05-07T03:34:21.372Z,18.93
2018-05-07T03:36:52.460Z,18.91
2018-05-07T03:39:20.984Z,18.88
2018-05-07T03:41:49.478Z,18.88
2018-05-07T03:44:24.555Z,18.90
2018-05-07T03:46:53.247Z,18.88
2018-05-07T03:49:21.885Z,18.84
2018-05-07T03:51:50.865Z,18.81
2018-05-07T03:54:24.516Z,18.79
2018-05-07T03:56:53.134Z,18.78
2018-05-07T03:59:28.809Z,18.75
2018-05-07T04:01:57.707Z,18.73
2018-05-07T04:04:26.794Z,18.72
2018-05-07T04:06:56.037Z,18.70
2018-05-07T04:09:30.554Z,18.68
2018-05-07T04:11:59.332Z,18.66
2018-05-07T04:14:27.838Z,18.61
2018-05-07T04:19:13.673Z,18.60
2018-05-07T04:21:47.555Z,18.55
2018-05-07T04:24:17.530Z,18.52
2018-05-07T04:26:46.221Z,18.49
2018-05-07T04:29:16.044Z,18.49
2018-05-07T04:31:45.019Z,18.48
2018-05-07T04:34:13.880Z,18.47
2018-05-07T04:36:42.599Z,18.46
2018-05-07T04:39:17.623Z,18.44
2018-05-07T04:41:46.129Z,18.39
2018-05-07T04:44:14.639Z,18.38
2018-05-07T04:46:54.096Z,18.35
2018-05-07T04:49:25.970Z,18.39
2018-05-07T04:51:56.041Z,18.40
2018-05-07T04:54:24.688Z,18.33
2018-05-07T04:56:53.240Z,18.34
2018-05-07T04:59:22.231Z,18.38
2018-05-07T05:01:50.825Z,18.39
2018-05-07T05:04:19.662Z,18.47
2018-05-07T05:06:53.258Z,18.50
2018-05-07T05:09:21.816Z,18.52
2018-05-07T05:11:50.392Z,18.58
2018-05-07T05:14:19.397Z,18.62
2018-05-07T05:16:52.999Z,18.61
2018-05-07T05:19:21.964Z,18.65
2018-05-07T05:21:52.068Z,18.70
2018-05-07T05:24:21.156Z,18.77
2018-05-07T05:26:54.809Z,18.81
2018-05-07T05:29:24.125Z,18.84
2018-05-07T05:31:53.223Z,18.88
2018-05-07T05:34:22.831Z,18.94
2018-05-07T05:36:51.801Z,19.00
2018-05-07T05:39:20.411Z,19.07
2018-05-07T05:41:49.294Z,19.16
2018-05-07T05:44:18.333Z,19.23
2018-05-07T05:46:46.890Z,19.31
2018-05-07T05:49:15.561Z,19.40
2018-05-07T05:51:47.937Z,19.48
2018-05-07T05:54:16.575Z,19.60
2018-05-07T05:56:45.139Z,19.70
2018-05-07T05:59:14.714Z,19.80
2018-05-07T06:01:43.267Z,19.89
2018-05-07T06:04:12.013Z,19.98
2018-05-07T06:06:40.961Z,20.09
2018-05-07T06:09:09.942Z,20.18
2018-05-07T06:11:38.599Z,20.27
2018-05-07T06:14:07.582Z,20.39
2018-05-07T06:16:36.268Z,20.52
2018-05-07T06:19:04.903Z,20.63
2018-05-07T06:21:33.879Z,20.71
2018-05-07T06:24:05.617Z,20.80
2018-05-07T06:26:34.143Z,20.90
2018-05-07T06:29:03.170Z,20.96
2018-05-07T06:31:32.198Z,20.89
2018-05-07T06:34:00.785Z,21.05
2018-05-07T06:36:32.791Z,21.14
2018-05-07T06:39:01.561Z,21.27
2018-05-07T06:41:33.545Z,21.36
2018-05-07T06:44:03.447Z,21.45
2018-05-07T06:46:32.007Z,21.48
2018-05-07T06:49:00.582Z,21.53
2018-05-07T06:53:51.255Z,21.31
2018-05-07T06:56:20.635Z,21.32
2018-05-07T06:58:49.720Z,21.30
2018-05-07T07:01:21.281Z,21.37
2018-05-07T07:03:49.797Z,21.55
2018-05-07T07:06:18.689Z,21.64
2018-05-07T07:08:47.305Z,21.19
2018-05-07T07:11:16.018Z,20.98
2018-05-07T07:13:45.676Z,21.08
2018-05-07T07:16:14.577Z,21.22
2018-05-07T07:18:43.995Z,21.25
2018-05-07T07:21:19.577Z,21.37
2018-05-07T07:23:48.097Z,21.42
2018-05-07T07:26:23.462Z,21.39
2018-05-07T07:28:52.015Z,21.40
2018-05-07T07:31:21.095Z,21.56
2018-05-07T07:33:49.986Z,21.67
2018-05-07T07:36:18.985Z,21.57
2018-05-07T07:38:47.488Z,21.15
2018-05-07T07:41:17.126Z,21.45
2018-05-07T07:43:45.913Z,21.60
2018-05-07T07:46:14.767Z,21.72
2018-05-07T07:48:43.632Z,21.78
2018-05-07T07:51:12.251Z,21.81
2018-05-07T07:53:40.853Z,21.79
2018-05-07T07:56:09.655Z,21.66
2018-05-07T07:58:38.153Z,21.67
2018-05-07T08:01:06.714Z,21.76
2018-05-07T08:03:40.963Z,21.76
2018-05-07T08:06:09.479Z,21.69
2018-05-07T08:08:41.815Z,21.64
2018-05-07T08:11:10.479Z,21.64
2018-05-07T08:13:41.511Z,21.72
2018-05-07T08:16:10.035Z,21.58
2018-05-07T08:18:38.618Z,21.79
2018-05-07T08:23:47.035Z,21.95
2018-05-07T08:26:18.784Z,21.92
2018-05-07T08:28:47.356Z,22.03
2018-05-07T08:31:15.968Z,22.08
2018-05-07T08:33:44.837Z,22.00
2018-05-07T08:36:13.508Z,22.07
2018-05-07T08:41:21.445Z,22.08
2018-05-07T08:43:50.027Z,22.14
2018-05-07T08:46:18.911Z,22.17
2018-05-07T08:48:53.586Z,22.29
2018-05-07T08:51:22.155Z,22.41
2018-05-07T08:53:50.696Z,22.56
2018-05-07T08:56:19.531Z,22.67
2018-05-07T08:58:48.371Z,22.59
2018-05-07T09:01:23.917Z,22.54
2018-05-07T09:03:52.443Z,22.64
2018-05-07T09:06:26.842Z,22.84
2018-05-07T09:08:58.057Z,22.82
2018-05-07T09:11:26.906Z,22.81
2018-05-07T09:13:55.782Z,22.95
2018-05-07T09:16:24.324Z,23.07
2018-05-07T09:18:54.925Z,23.11
2018-05-07T09:21:23.750Z,23.28
2018-05-07T09:23:52.270Z,23.30
2018-05-07T09:26:20.876Z,23.29
2018-05-07T09:28:49.646Z,23.49
2018-05-07T09:31:23.212Z,23.61
2018-05-07T09:33:52.322Z,23.79
2018-05-07T09:36:20.948Z,23.94
2018-05-07T09:38:53.013Z,24.14
2018-05-07T09:41:21.546Z,24.33
2018-05-07T09:43:50.214Z,24.07
2018-05-07T09:46:24.460Z,24.30
2018-05-07T09:48:53.051Z,24.45
2018-05-07T09:51:21.606Z,24.54
2018-05-07T09:53:50.410Z,24.45
2018-05-07T09:56:19.137Z,24.58
2018-05-07T09:59:03.563Z,24.90
2018-05-07T10:01:33.163Z,24.77
2018-05-07T10:04:02.682Z,25.06
2018-05-07T10:06:31.748Z,25.15
2018-05-07T10:09:00.567Z,25.29
2018-05-07T10:11:29.120Z,25.50
2018-05-07T10:13:57.658Z,25.71
2018-05-07T10:16:26.495Z,25.99
2018-05-07T10:18:54.991Z,26.36
2018-05-07T10:21:23.526Z,26.38
2018-05-07T10:23:52.354Z,26.46
2018-05-07T10:26:25.342Z,26.74
2018-05-07T10:28:53.932Z,26.89
2018-05-07T10:31:25.362Z,27.21
2018-05-07T10:33:54.047Z,27.54
2018-05-07T10:36:22.611Z,27.36
2018-05-07T10:39:02.495Z,27.81
2018-05-07T10:41:31.019Z,27.68
2018-05-07T10:44:00.129Z,27.89
2018-05-07T10:46:28.654Z,28.48
2018-05-07T10:48:57.200Z,28.00
2018-05-07T10:51:26.737Z,28.42
2018-05-07T10:53:55.332Z,28.42
2018-05-07T10:56:23.804Z,28.74
2018-05-07T10:58:58.025Z,28.90
2018-05-07T11:01:26.546Z,29.03
2018-05-07T11:03:55.686Z,29.41
2018-05-07T11:06:24.505Z,29.53
2018-05-07T11:08:53.078Z,29.01
2018-05-07T11:11:21.644Z,29.30
2018-05-07T11:13:51.796Z,29.63
2018-05-07T11:32:43.390Z,31.63
2018-05-07T11:35:12.493Z,31.71
2018-05-07T11:37:42.171Z,32.41
2018-05-07T11:40:10.679Z,32.80
2018-05-07T11:42:45.779Z,33.19
2018-05-07T11:45:14.912Z,33.20
2018-05-07T11:47:43.552Z,32.84
2018-05-07T11:50:12.620Z,33.50
2018-05-07T11:52:41.123Z,33.79
2018-05-07T11:55:09.703Z,33.67
2018-05-07T11:57:38.520Z,33.20
2018-05-07T12:00:14.211Z,32.09
2018-05-07T12:02:42.873Z,33.12
2018-05-07T12:05:11.420Z,33.39
2018-05-07T12:07:40.142Z,32.58
2018-05-07T12:10:09.195Z,32.92
2018-05-07T12:12:37.840Z,33.18
2018-05-07T12:15:07.084Z,33.40
2018-05-07T12:17:36.026Z,33.59
2018-05-07T12:20:06.729Z,34.26
2018-05-07T12:22:35.260Z,34.83
2018-05-07T12:28:05.054Z,34.69
2018-05-07T12:30:34.212Z,34.51
2018-05-07T12:33:02.863Z,34.70
2018-05-07T12:35:31.446Z,35.10
2018-05-07T12:38:00.400Z,35.70
2018-05-07T12:40:29.251Z,35.77
2018-05-07T12:42:57.867Z,35.73
2018-05-07T12:45:27.137Z,35.70
2018-05-07T12:47:59.491Z,34.91
2018-05-07T12:50:28.136Z,36.17
2018-05-07T12:52:57.042Z,36.36
2018-05-07T12:55:25.839Z,36.89
2018-05-07T12:57:54.753Z,35.47
2018-05-07T13:00:23.661Z,36.29
2018-05-07T13:02:52.229Z,36.31
2018-05-07T13:05:20.907Z,34.97
2018-05-07T13:07:50.894Z,35.14
2018-05-07T13:10:25.313Z,36.03
2018-05-07T13:12:54.131Z,36.59
2018-05-07T13:15:23.135Z,36.37
2018-05-07T13:17:51.700Z,35.51
2018-05-07T13:20:22.682Z,36.55
2018-05-07T13:22:51.612Z,35.92
2018-05-07T13:25:20.948Z,35.65
2018-05-07T13:27:49.555Z,35.22
2018-05-07T13:30:18.555Z,36.29
2018-05-07T13:32:47.230Z,37.18
2018-05-07T13:35:26.519Z,38.18
2018-05-07T13:37:55.706Z,38.30
2018-05-07T13:40:24.378Z,37.77
2018-05-07T13:42:52.973Z,38.20
2018-05-07T13:45:22.917Z,38.64
2018-05-07T13:47:51.578Z,38.69
2018-05-07T13:50:20.328Z,38.06
2018-05-07T13:52:50.415Z,38.62
2018-05-07T13:55:29.084Z,39.10
2018-05-07T14:11:06.216Z,40.06
2018-05-07T14:13:35.494Z,39.57
2018-05-07T14:16:05.042Z,37.21
2018-05-07T14:18:33.613Z,39.62
2018-05-07T14:21:02.994Z,39.14
2018-05-07T14:23:33.207Z,38.83
2018-05-07T14:26:03.596Z,39.21
2018-05-07T14:28:32.419Z,39.25
2018-05-07T14:31:01.681Z,40.64
2018-05-07T14:33:30.423Z,37.88
2018-05-07T14:35:59.224Z,39.37
2018-05-07T14:38:27.748Z,41.03
2018-05-07T14:40:56.263Z,41.17
2018-05-07T14:43:25.326Z,41.41
2018-05-07T14:45:58.746Z,42.29
2018-05-07T14:48:28.258Z,42.64
2018-05-07T14:50:58.061Z,42.01
2018-05-07T14:53:30.291Z,42.59
2018-05-07T14:55:58.782Z,43.79
2018-05-07T14:58:27.574Z,42.31
2018-05-07T15:01:01.035Z,43.51
2018-05-07T15:03:29.584Z,44.42
2018-05-07T15:05:58.342Z,45.57
2018-05-07T15:08:26.923Z,43.46
2018-05-07T15:10:55.524Z,43.43
2018-05-07T15:13:27.202Z,45.16
2018-05-07T15:15:55.706Z,45.40
2018-05-07T15:18:28.035Z,44.25
2018-05-07T15:20:56.775Z,43.08
2018-05-07T15:23:25.527Z,41.49
2018-05-07T15:25:54.322Z,43.84
2018-05-07T15:28:22.910Z,44.73
2018-05-07T15:30:51.447Z,42.87
2018-05-07T15:33:20.569Z,39.44
2018-05-07T15:35:49.086Z,39.11
2018-05-07T15:38:18.149Z,40.03
2018-05-07T15:43:27.238Z,40.05
2018-05-07T15:46:06.707Z,39.22
2018-05-07T15:48:35.298Z,40.38
2018-05-07T15:51:04.272Z,41.43
2018-05-07T15:53:32.822Z,40.28
2018-05-07T15:56:03.932Z,40.17
2018-05-07T15:58:33.036Z,38.62
2018-05-07T16:01:01.647Z,38.16
2018-05-07T16:03:30.170Z,38.06
2018-05-07T16:05:59.087Z,38.10
2018-05-07T16:08:32.554Z,38.06
2018-05-07T16:11:01.465Z,37.93
2018-05-07T16:13:30.446Z,36.78
2018-05-07T16:15:59.034Z,34.95
2018-05-07T16:18:27.610Z,34.25
2018-05-07T16:20:56.660Z,34.10
2018-05-07T16:23:25.139Z,34.41
2018-05-07T16:25:53.701Z,34.59
2018-05-07T16:28:23.772Z,33.68
2018-05-07T16:30:52.717Z,33.54
2018-05-07T16:33:22.960Z,33.61
2018-05-07T16:35:52.933Z,34.19
2018-05-07T16:38:23.684Z,34.18
2018-05-07T16:40:52.321Z,34.22
2018-05-07T16:43:21.238Z,34.10
2018-05-07T16:45:49.889Z,33.55
2018-05-07T16:48:18.479Z,33.22
2018-05-07T16:50:47.550Z,33.18
2018-05-07T16:53:22.756Z,33.57
2018-05-07T16:55:51.281Z,32.80
2018-05-07T16:58:24.074Z,32.51
2018-05-07T17:00:52.961Z,32.84
2018-05-07T17:03:21.526Z,32.72
2018-05-07T17:05:54.323Z,32.34
2018-05-07T17:08:22.979Z,31.85
2018-05-07T17:10:51.886Z,31.44
2018-05-07T17:13:26.695Z,31.50
2018-05-07T17:15:55.379Z,31.57
2018-05-07T17:18:23.993Z,31.82
2018-05-07T17:20:53.019Z,31.79
2018-05-07T17:23:22.163Z,31.79
2018-05-07T17:25:50.905Z,31.96
2018-05-07T17:28:19.509Z,31.85
2018-05-07T17:30:48.411Z,31.81
2018-05-07T17:33:22.260Z,31.91
2018-05-07T17:35:51.177Z,31.84
2018-05-07T17:38:20.445Z,31.75
2018-05-07T17:40:49.013Z,31.45
2018-05-07T17:43:18.319Z,31.28
2018-05-07T17:48:07.916Z,30.75
2018-05-07T17:50:36.577Z,30.77
2018-05-07T17:53:05.796Z,30.53
2018-05-07T17:55:34.468Z,30.40
2018-05-07T17:58:09.928Z,30.62
2018-05-07T18:00:38.817Z,30.43
2018-05-07T18:03:07.531Z,29.98
2018-05-07T18:05:38.738Z,29.86
2018-05-07T18:08:07.645Z,29.85
2018-05-07T18:10:41.181Z,29.75
2018-05-07T18:13:09.791Z,29.74
2018-05-07T18:15:41.157Z,29.47
2018-05-07T18:18:09.612Z,29.43
2018-05-07T18:20:44.377Z,29.44
2018-05-07T18:23:13.750Z,29.36
2018-05-07T18:25:45.513Z,29.22
2018-05-07T18:28:14.140Z,29.11
2018-05-07T18:30:49.000Z,29.05
2018-05-07T18:33:18.137Z,29.00
2018-05-07T18:35:46.775Z,28.96
2018-05-07T18:38:16.988Z,28.85
2018-05-07T18:40:46.022Z,28.76
2018-05-07T18:43:14.863Z,28.70
2018-05-07T18:45:44.017Z,28.66
2018-05-07T18:48:12.717Z,28.64
2018-05-07T18:50:41.250Z,28.59
2018-05-07T18:53:10.475Z,28.47
2018-05-07T18:55:39.075Z,28.37
2018-05-07T18:58:12.232Z,28.30
2018-05-07T19:00:41.215Z,28.21
2018-05-07T19:03:13.458Z,28.04
2018-05-07T19:05:42.057Z,27.97
2018-05-07T19:08:10.919Z,27.92
2018-05-07T19:10:39.435Z,27.81
2018-05-07T19:13:08.019Z,27.79
2018-05-07T19:15:36.883Z,27.76
2018-05-07T19:18:06.313Z,27.70
2018-05-07T19:20:34.851Z,27.65
2018-05-07T19:23:04.350Z,27.64
2018-05-07T19:25:32.957Z,27.59
2018-05-07T19:28:01.582Z,27.47
2018-05-07T19:30:31.088Z,27.44
2018-05-07T19:32:59.716Z,27.41
2018-05-07T19:35:28.269Z,27.36
2018-05-07T19:37:57.989Z,27.29
2018-05-07T19:40:26.558Z,27.28
2018-05-07T19:42:55.111Z,27.25
2018-05-07T19:45:24.179Z,27.24
2018-05-07T19:47:52.759Z,27.19
2018-05-07T19:50:21.440Z,27.11
2018-05-07T19:55:24.983Z,26.98
2018-05-07T19:57:53.511Z,26.95
2018-05-07T20:00:36.906Z,26.94
2018-05-07T20:05:38.903Z,26.85
2018-05-07T20:08:07.824Z,26.81
2018-05-07T20:10:41.359Z,26.75
2018-05-07T20:13:14.169Z,26.68
2018-05-07T20:15:44.655Z,26.63
2018-05-07T20:18:13.646Z,26.58
2018-05-07T20:20:45.480Z,26.51
2018-05-07T20:23:19.997Z,26.36
2018-05-07T20:25:49.447Z,26.31
2018-05-07T20:28:19.457Z,26.28
2018-05-07T20:30:48.055Z,26.21
2018-05-07T20:33:16.818Z,26.14
2018-05-07T20:35:45.605Z,26.12
2018-05-07T20:38:14.345Z,26.05
2018-05-07T20:40:42.891Z,25.90
2018-05-07T20:43:12.760Z,25.84
2018-05-07T20:45:41.366Z,25.80
2018-05-07T20:48:09.987Z,25.76
2018-05-07T20:50:42.280Z,25.67
2018-05-07T20:53:10.847Z,25.64
2018-05-07T20:55:40.278Z,25.55
2018-05-07T20:58:09.292Z,25.46
2018-05-07T21:00:38.522Z,25.38
2018-05-07T21:03:07.210Z,25.35
2018-05-07T21:05:36.060Z,25.33
2018-05-07T21:08:05.943Z,25.34
2018-05-07T21:10:34.500Z,25.31
2018-05-07T21:13:03.744Z,25.26
2018-05-07T21:15:35.086Z,25.22
2018-05-07T21:18:04.567Z,25.13
2018-05-07T21:20:35.141Z,24.97
2018-05-07T21:23:03.847Z,24.84
2018-05-07T21:25:36.394Z,24.82
2018-05-07T21:28:06.787Z,24.83
2018-05-07T21:30:36.558Z,24.78
2018-05-07T21:33:05.049Z,24.77
2018-05-07T21:35:33.842Z,24.75
2018-05-07T21:38:04.392Z,24.73
2018-05-07T21:40:33.427Z,24.64
2018-05-07T21:43:02.251Z,24.61
2018-05-07T21:45:30.839Z,24.53
2018-05-07T21:47:59.379Z,24.43
2018-05-07T21:50:28.509Z,24.42
2018-05-07T21:52:57.208Z,24.37
2018-05-07T21:55:25.805Z,24.39
2018-05-07T21:57:54.671Z,24.38
2018-05-07T22:00:24.972Z,24.35
2018-05-07T22:02:53.547Z,24.30
2018-05-07T22:05:22.412Z,24.27
2018-05-07T22:07:51.095Z,24.23
2018-05-07T22:10:25.409Z,24.11
2018-05-07T22:12:53.890Z,24.05
2018-05-07T22:15:25.183Z,23.92
2018-05-07T22:17:55.505Z,23.86
2018-05-07T22:20:28.905Z,23.76
2018-05-07T22:22:57.737Z,23.64
2018-05-07T22:25:27.177Z,23.62
2018-05-07T22:28:01.283Z,23.56
2018-05-07T22:30:30.618Z,23.51
2018-05-07T22:33:01.096Z,23.46
2018-05-07T22:35:29.692Z,23.46
2018-05-07T22:37:58.477Z,23.45
2018-05-07T22:43:06.135Z,23.40
2018-05-07T22:45:39.079Z,23.39
2018-05-07T22:48:13.448Z,23.34
2018-05-07T22:50:42.313Z,23.25
2018-05-07T22:53:10.830Z,23.01
2018-05-07T22:55:45.172Z,23.03
2018-05-07T22:58:15.011Z,23.02
2018-05-07T23:00:43.594Z,22.96
2018-05-07T23:03:14.734Z,22.80
2018-05-07T23:05:43.303Z,22.81
2018-05-07T23:08:15.644Z,22.77
2018-05-07T23:10:45.116Z,22.67
2018-05-07T23:13:20.128Z,22.59
2018-05-07T23:15:49.099Z,22.54
2018-05-07T23:18:18.852Z,22.53
2018-05-07T23:20:47.488Z,22.43
2018-05-07T23:23:16.511Z,22.33
2018-05-07T23:25:45.106Z,22.32
2018-05-07T23:28:18.960Z,22.23
2018-05-07T23:30:47.910Z,22.20
2018-05-07T23:35:55.719Z,22.23
2018-05-07T23:38:24.339Z,22.25
2018-05-07T23:40:52.887Z,22.26
2018-05-07T23:43:22.054Z,22.25
2018-05-07T23:45:50.704Z,22.23
2018-05-07T23:48:19.519Z,22.25
2018-05-07T23:50:48.726Z,22.24
2018-05-07T23:53:17.284Z,22.26
2018-05-07T23:55:45.857Z,22.27
2018-05-07T23:58:15.135Z,22.30
